TENO2: Tenkiller Lake

Data processed at Thu Mar 15 2018 23:45


All information presented herein is the property of the government of the United States of America and may be revised or deleted at any time without prior notice.
Dissemination of this information without the expressed written consent of the Public Affairs Office, Tulsa District U.S. Army Corps of Engineers is strictly prohibited.
These data are gathered electronically and, as presented, have not undergone any form of quality control. These data are not guaranteed to be valid or correct.
Go to home page.
Go to station list.

Upstream stations:

Downstream station:
Previous Day
Next Day
Current Day
    
SHEF ID:       TENO2     Tenkiller Lake
STATION TYPE:  Reservoir
Normal Pool:  Bottom =   594.50, Top =   632.00

               PRECIP PRECIP(A) ELEVATION   STORAGE   TW-ELEV    INFLOW   RELEASE  AIR-TEMP  WIND-DIRWIND-SPEED REL-HUMID SOLAR-RAD   VOLTAGE  BAT-LOAD
                   in        in        ft     ac-ft        ft       cfs       cfs         F       deg       mph         %      W/m2      volt      volt
              Ccp-Rev   Ccp-Rev   Ccp-Rev   Ccp-Rev   Ccp-Rev  Regi-Rev  Regi-Rev   Ccp-Rev   Ccp-Rev   Ccp-Rev   Ccp-Rev   Ccp-Rev   Ccp-Rev   Ccp-Rev
(US/Central)
03/13 00:00      0.00      0.00    636.37    727103    486.75      2092      3090     39.88    179.90      1.57     82.65      0.00     13.74     13.18
03/13 01:00      0.00      0.00    636.38    727240    486.76      1760      3090     38.01    162.60      2.33     84.54      1.00     13.73     13.18
03/13 02:00      0.00      0.00    636.37    727103    486.77      2093      3090     37.58    147.00      1.78     86.38      1.00     13.73     13.18
03/13 03:00      0.00      0.00    636.36    726965    486.75      2093      3090     38.23    145.40      1.91     87.29      0.00     13.73     13.18
03/13 04:00      0.00      0.00    636.36    726965    486.76      2045      3090     30.97    121.90      0.49     97.55      1.00     13.74     13.18
03/13 05:00      0.00      0.00    636.34    726690    486.76      1760      3090     30.22    252.80      0.32     99.19      0.00     13.73     13.18
03/13 06:00      0.00      0.00    636.35    726828    486.76      2378      3090     29.98    256.20      0.37     99.26      0.00     13.73     13.18
03/13 07:00      0.00      0.00    636.33    726553    486.73      1807      3090     29.12    249.80      0.40     99.32      1.00     13.73     13.18
03/13 08:00      0.00      0.00    636.34    726690    486.78      2092      3090     29.34    248.30      0.37     99.32      6.00     13.73     13.18
03/13 09:00      0.00      0.00    636.32    726415    486.71      1427      3090     32.52    223.30      0.38     99.32     92.00     13.72     13.12
03/13 10:00      0.00      0.00    636.31    726278    486.75      1427      3090     41.20    142.10      1.43     84.36    276.00     13.72     13.12
03/13 11:00      0.00      0.00    636.30    726141    486.70      1427      3090     43.72    128.70      4.44     67.57    522.00     13.72     13.12
03/13 12:00      0.00      0.00    636.28    725866    486.72      1427      3090     46.36    114.80      4.54     60.00    672.00     13.72     13.12
03/13 13:00      0.00      0.00    636.29    726003    486.76      1257      3090     49.44    108.70      5.99     43.95    762.00     13.72     13.12
03/13 14:00      0.00      0.00    636.27    725728    486.76      1048      3090     52.07    123.00      4.59     33.33    790.00     13.72     13.12
03/13 15:00      0.00      0.00    636.28    725866    486.75      1048      3090     54.61    126.80      4.02     35.04    745.00     13.73     13.12
03/13 16:00      0.00      0.00    636.27    725728    486.75       220      3090     54.93    130.30      3.23     28.69    650.00     13.73     13.12
03/13 17:00      0.00      0.00    636.25    725453    486.78       254      3090     55.26    136.60      3.90     31.13    511.00     13.73     13.12
03/13 18:00      0.00      0.00    636.25    725453    486.77       194      3090     54.61    149.00      4.43     22.52    324.00     13.73     13.12
03/13 19:00      0.00      0.00    636.24    725316    486.75       219      3090     53.06    138.90      2.29     34.18     93.00     13.73     13.12
03/13 20:00      0.00      0.00    636.23    725179    486.75       254      3090     49.44    262.20      0.99     21.55      6.00     13.73     13.18
03/13 21:00      0.00      0.00    636.23    725179    486.73       254      3090     44.17    258.00      0.39     50.48      0.00     13.73     13.18
03/13 22:00      0.00      0.00    636.22    725041    486.76       254      3090     40.32    251.80      0.40     59.15      1.00     13.73     13.18
03/13 23:00      0.00      0.00    636.22    725041    486.75       234      3090     37.58    241.40      0.40     76.91      1.00     13.73     13.12